Aeroporto :
LOGIN :

Iscrizione | Disclaimer

   EN    FR    IT 

 










Sommario :    VFR   VFR Marginale   IFR   IFR Intensivo   IFR Molto Intensivo
Visibilità : 
Base nubi : 
>= 8 km
>= 3000ft
5 / 8 km
1000 / 3000 ft
1500m / 5 km
500 / 1000 ft
800 / 1500m
200 / 500 ft
< 800m
< 200 ft
Simboli :   Temporali  Nebbia  Neve Forte  Precipitazioni Forti  Vento > 20 kt
SIGMETs :   Varie  Temporali  Ghiacco  Turbolenza  Onda orograficha  Ceneri Vulcaniche






- Altitudine del aeroporto : 1043 ft
- Codice IATA : SLD


LZSL - Sliac

ULTIMO METAR :
  • 280030Z 21006G16KT 150V250 5000 -SN BKN021 OVC029 02/M03 Q0999

METARs OBSOLETI :
  • 280000Z 32004KT 280V350 9999 BKN054 OVC064 01/M03 Q0999
  • 272330Z 33006KT 9999 BKN062 00/M03 Q0999
  • 272300Z 05004KT 010V090 9999 FEW040 OVC046 00/M03 Q1000
  • 272230Z VRB02KT 9999 BKN055 M00/M03 Q1000
  • 272200Z 36003KT 340V070 CAVOK M00/M03 Q1000

TAF TAF LZSL
Valido dal 28 a 00 ore il 28 a 09 ore UTC


272300Z 2800/2809 15006KT 9999 BKN040 OVC050
TEMPO 2800/2804 4000 -SN SCT005 BKN014 OVC020
TEMPO 2804/2809 1300 SN BKN008 OVC013



MetMap, La meteo Aeronautica in un colpo d'occhio ! - Copyright ORBIFLY Dicembre 2007 - Disclaimer

ORBIFLY MET'MAP TEAM :

Programmazione e sviluppo : Alexandra Zaïnal
Concezione : Baudouin d'Aumeries
Aiuto per la programmazione : Marc-Olivier Méhu
Supporto tecnico e logistico : Manuel Goepfert
Aiuto per la traduzione : Arnaldo La Scala

Contatto : metmap@orbifly.com




FONTI E CREDITI :

   NOAA